sensor_id;sensor_type;location;lat;lon;timestamp;P1;durP1;ratioP1;P2;durP2;ratioP2
58553;SDS011;48119;53.218;6.576;2022-08-20T00:00:35;12.50;;;4.40;;
58553;SDS011;48119;53.218;6.576;2022-08-20T00:03:04;11.10;;;4.68;;
58553;SDS011;48119;53.218;6.576;2022-08-20T00:05:37;8.52;;;4.05;;
58553;SDS011;48119;53.218;6.576;2022-08-20T00:08:05;9.30;;;4.45;;
58553;SDS011;48119;53.218;6.576;2022-08-20T00:10:38;12.45;;;4.75;;
58553;SDS011;48119;53.218;6.576;2022-08-20T00:13:10;9.95;;;4.50;;
58553;SDS011;48119;53.218;6.576;2022-08-20T00:15:42;10.00;;;3.90;;
58553;SDS011;48119;53.218;6.576;2022-08-20T00:18:11;7.50;;;4.70;;
58553;SDS011;48119;53.218;6.576;2022-08-20T00:20:39;8.25;;;4.60;;
58553;SDS011;48119;53.218;6.576;2022-08-20T00:23:09;8.70;;;4.85;;
58553;SDS011;48119;53.218;6.576;2022-08-20T00:25:38;9.90;;;4.10;;
58553;SDS011;48119;53.218;6.576;2022-08-20T00:28:04;12.90;;;4.25;;
58553;SDS011;48119;53.218;6.576;2022-08-20T00:30:31;7.90;;;3.55;;
58553;SDS011;48119;53.218;6.576;2022-08-20T00:33:02;6.07;;;3.78;;
58553;SDS011;48119;53.218;6.576;2022-08-20T00:35:31;8.15;;;3.47;;
58553;SDS011;48119;53.218;6.576;2022-08-20T00:37:59;5.50;;;3.60;;
58553;SDS011;48119;53.218;6.576;2022-08-20T00:40:27;11.23;;;4.32;;
58553;SDS011;48119;53.218;6.576;2022-08-20T00:42:57;10.98;;;4.25;;
58553;SDS011;48119;53.218;6.576;2022-08-20T00:45:26;8.00;;;3.38;;
58553;SDS011;48119;53.218;6.576;2022-08-20T00:47:54;9.57;;;3.92;;
58553;SDS011;48119;53.218;6.576;2022-08-20T00:50:22;9.68;;;4.40;;
58553;SDS011;48119;53.218;6.576;2022-08-20T00:52:51;13.40;;;4.05;;
58553;SDS011;48119;53.218;6.576;2022-08-20T00:55:19;11.35;;;4.40;;
58553;SDS011;48119;53.218;6.576;2022-08-20T00:57:50;15.43;;;4.10;;
58553;SDS011;48119;53.218;6.576;2022-08-20T01:00:23;9.20;;;3.88;;
58553;SDS011;48119;53.218;6.576;2022-08-20T01:02:53;11.32;;;4.93;;
58553;SDS011;48119;53.218;6.576;2022-08-20T01:05:20;11.18;;;5.85;;
58553;SDS011;48119;53.218;6.576;2022-08-20T01:07:48;8.00;;;4.85;;
58553;SDS011;48119;53.218;6.576;2022-08-20T01:10:18;8.88;;;3.70;;
58553;SDS011;48119;53.218;6.576;2022-08-20T01:12:50;10.43;;;4.40;;
58553;SDS011;48119;53.218;6.576;2022-08-20T01:15:17;11.88;;;4.28;;
58553;SDS011;48119;53.218;6.576;2022-08-20T01:17:51;9.82;;;3.65;;
58553;SDS011;48119;53.218;6.576;2022-08-20T01:20:23;5.47;;;3.70;;
58553;SDS011;48119;53.218;6.576;2022-08-20T01:25:58;14.00;;;3.92;;
58553;SDS011;48119;53.218;6.576;2022-08-20T01:28:46;8.52;;;3.95;;
58553;SDS011;48119;53.218;6.576;2022-08-20T01:31:24;8.00;;;3.83;;
58553;SDS011;48119;53.218;6.576;2022-08-20T01:33:52;9.60;;;4.38;;
58553;SDS011;48119;53.218;6.576;2022-08-20T01:36:24;8.02;;;3.85;;
58553;SDS011;48119;53.218;6.576;2022-08-20T01:38:56;8.48;;;4.60;;
58553;SDS011;48119;53.218;6.576;2022-08-20T01:41:40;11.05;;;4.35;;
58553;SDS011;48119;53.218;6.576;2022-08-20T01:44:10;7.53;;;3.90;;
58553;SDS011;48119;53.218;6.576;2022-08-20T01:46:38;22.17;;;4.85;;
58553;SDS011;48119;53.218;6.576;2022-08-20T01:49:10;9.57;;;4.13;;
58553;SDS011;48119;53.218;6.576;2022-08-20T01:51:38;6.88;;;3.60;;
58553;SDS011;48119;53.218;6.576;2022-08-20T01:54:04;10.88;;;4.53;;
58553;SDS011;48119;53.218;6.576;2022-08-20T01:56:31;11.38;;;4.40;;
58553;SDS011;48119;53.218;6.576;2022-08-20T01:58:59;6.85;;;4.45;;
58553;SDS011;48119;53.218;6.576;2022-08-20T02:01:31;12.50;;;5.15;;
58553;SDS011;48119;53.218;6.576;2022-08-20T02:03:59;7.95;;;3.88;;
58553;SDS011;48119;53.218;6.576;2022-08-20T02:06:27;8.13;;;4.22;;
58553;SDS011;48119;53.218;6.576;2022-08-20T02:08:58;8.23;;;4.28;;
58553;SDS011;48119;53.218;6.576;2022-08-20T02:11:31;7.97;;;4.47;;
58553;SDS011;48119;53.218;6.576;2022-08-20T02:13:59;7.32;;;4.03;;
58553;SDS011;48119;53.218;6.576;2022-08-20T02:16:29;8.95;;;3.85;;
58553;SDS011;48119;53.218;6.576;2022-08-20T02:19:03;12.40;;;4.47;;
58553;SDS011;48119;53.218;6.576;2022-08-20T02:21:39;7.68;;;4.05;;
58553;SDS011;48119;53.218;6.576;2022-08-20T02:24:08;7.85;;;4.05;;
58553;SDS011;48119;53.218;6.576;2022-08-20T02:26:37;4.97;;;3.38;;
58553;SDS011;48119;53.218;6.576;2022-08-20T02:29:06;9.60;;;3.95;;
58553;SDS011;48119;53.218;6.576;2022-08-20T02:31:36;9.35;;;3.63;;
58553;SDS011;48119;53.218;6.576;2022-08-20T02:34:05;10.50;;;4.03;;
58553;SDS011;48119;53.218;6.576;2022-08-20T02:36:44;8.35;;;4.50;;
58553;SDS011;48119;53.218;6.576;2022-08-20T02:39:13;10.35;;;4.18;;
58553;SDS011;48119;53.218;6.576;2022-08-20T02:41:47;11.07;;;4.22;;
58553;SDS011;48119;53.218;6.576;2022-08-20T02:44:14;8.05;;;3.30;;
58553;SDS011;48119;53.218;6.576;2022-08-20T02:46:51;8.20;;;3.28;;
58553;SDS011;48119;53.218;6.576;2022-08-20T02:49:20;8.32;;;3.83;;
58553;SDS011;48119;53.218;6.576;2022-08-20T02:51:46;8.25;;;2.95;;
58553;SDS011;48119;53.218;6.576;2022-08-20T02:54:18;11.80;;;3.67;;
58553;SDS011;48119;53.218;6.576;2022-08-20T02:56:53;8.32;;;4.03;;
58553;SDS011;48119;53.218;6.576;2022-08-20T02:59:34;7.93;;;3.55;;
58553;SDS011;48119;53.218;6.576;2022-08-20T03:02:07;11.32;;;3.78;;
58553;SDS011;48119;53.218;6.576;2022-08-20T03:04:34;7.53;;;2.95;;
58553;SDS011;48119;53.218;6.576;2022-08-20T03:07:01;11.15;;;3.83;;
58553;SDS011;48119;53.218;6.576;2022-08-20T03:09:29;9.05;;;3.10;;
58553;SDS011;48119;53.218;6.576;2022-08-20T03:11:56;13.55;;;3.97;;
58553;SDS011;48119;53.218;6.576;2022-08-20T03:14:22;8.25;;;2.75;;
58553;SDS011;48119;53.218;6.576;2022-08-20T03:17:03;6.72;;;2.97;;
58553;SDS011;48119;53.218;6.576;2022-08-20T03:19:30;8.27;;;3.17;;
58553;SDS011;48119;53.218;6.576;2022-08-20T03:21:56;8.60;;;2.75;;
58553;SDS011;48119;53.218;6.576;2022-08-20T03:24:35;8.43;;;2.65;;
58553;SDS011;48119;53.218;6.576;2022-08-20T03:27:11;11.45;;;4.15;;
58553;SDS011;48119;53.218;6.576;2022-08-20T03:29:41;8.07;;;2.83;;
58553;SDS011;48119;53.218;6.576;2022-08-20T03:32:09;5.72;;;2.47;;
58553;SDS011;48119;53.218;6.576;2022-08-20T03:34:34;7.32;;;3.50;;
58553;SDS011;48119;53.218;6.576;2022-08-20T03:37:01;14.50;;;2.92;;
58553;SDS011;48119;53.218;6.576;2022-08-20T03:39:30;6.90;;;2.60;;
58553;SDS011;48119;53.218;6.576;2022-08-20T03:41:57;9.55;;;2.75;;
58553;SDS011;48119;53.218;6.576;2022-08-20T03:44:22;8.10;;;2.53;;
58553;SDS011;48119;53.218;6.576;2022-08-20T03:46:50;11.63;;;3.13;;
58553;SDS011;48119;53.218;6.576;2022-08-20T03:49:16;12.88;;;3.05;;
58553;SDS011;48119;53.218;6.576;2022-08-20T03:51:42;7.28;;;2.20;;
58553;SDS011;48119;53.218;6.576;2022-08-20T03:54:10;12.63;;;2.58;;
58553;SDS011;48119;53.218;6.576;2022-08-20T03:56:36;7.72;;;2.47;;
58553;SDS011;48119;53.218;6.576;2022-08-20T03:59:02;6.63;;;2.75;;
58553;SDS011;48119;53.218;6.576;2022-08-20T04:01:28;5.85;;;2.55;;
58553;SDS011;48119;53.218;6.576;2022-08-20T04:03:54;6.05;;;2.05;;
58553;SDS011;48119;53.218;6.576;2022-08-20T04:06:22;10.07;;;2.60;;
58553;SDS011;48119;53.218;6.576;2022-08-20T04:08:48;9.00;;;2.78;;
58553;SDS011;48119;53.218;6.576;2022-08-20T04:11:18;11.90;;;2.53;;
58553;SDS011;48119;53.218;6.576;2022-08-20T04:13:43;7.90;;;2.03;;
58553;SDS011;48119;53.218;6.576;2022-08-20T04:16:09;6.60;;;2.03;;
58553;SDS011;48119;53.218;6.576;2022-08-20T04:18:35;5.90;;;2.40;;
58553;SDS011;48119;53.218;6.576;2022-08-20T04:21:01;8.30;;;2.00;;
58553;SDS011;48119;53.218;6.576;2022-08-20T04:23:28;8.20;;;2.38;;
58553;SDS011;48119;53.218;6.576;2022-08-20T04:25:55;13.60;;;2.53;;
58553;SDS011;48119;53.218;6.576;2022-08-20T04:28:22;5.88;;;2.85;;
58553;SDS011;48119;53.218;6.576;2022-08-20T04:30:51;6.05;;;2.15;;
58553;SDS011;48119;53.218;6.576;2022-08-20T04:33:20;9.07;;;2.45;;
58553;SDS011;48119;53.218;6.576;2022-08-20T04:35:48;7.35;;;2.08;;
58553;SDS011;48119;53.218;6.576;2022-08-20T04:38:16;7.03;;;2.40;;
58553;SDS011;48119;53.218;6.576;2022-08-20T04:40:43;4.25;;;1.95;;
58553;SDS011;48119;53.218;6.576;2022-08-20T04:43:22;7.45;;;1.70;;
58553;SDS011;48119;53.218;6.576;2022-08-20T04:45:58;4.53;;;2.05;;
58553;SDS011;48119;53.218;6.576;2022-08-20T04:48:27;6.22;;;2.30;;
58553;SDS011;48119;53.218;6.576;2022-08-20T04:50:54;10.48;;;2.72;;
58553;SDS011;48119;53.218;6.576;2022-08-20T04:53:23;4.35;;;2.00;;
58553;SDS011;48119;53.218;6.576;2022-08-20T04:55:57;5.33;;;2.23;;
58553;SDS011;48119;53.218;6.576;2022-08-20T04:58:32;4.85;;;1.88;;
58553;SDS011;48119;53.218;6.576;2022-08-20T05:01:02;8.50;;;2.25;;
58553;SDS011;48119;53.218;6.576;2022-08-20T05:03:33;6.43;;;1.80;;
58553;SDS011;48119;53.218;6.576;2022-08-20T05:06:02;7.22;;;2.38;;
58553;SDS011;48119;53.218;6.576;2022-08-20T05:08:31;7.28;;;2.35;;
58553;SDS011;48119;53.218;6.576;2022-08-20T05:10:59;7.28;;;2.03;;
58553;SDS011;48119;53.218;6.576;2022-08-20T05:13:26;5.72;;;1.77;;
58553;SDS011;48119;53.218;6.576;2022-08-20T05:15:53;6.80;;;2.20;;
58553;SDS011;48119;53.218;6.576;2022-08-20T05:18:21;6.60;;;2.20;;
58553;SDS011;48119;53.218;6.576;2022-08-20T05:20:48;6.50;;;1.83;;
58553;SDS011;48119;53.218;6.576;2022-08-20T05:23:15;7.25;;;2.28;;
58553;SDS011;48119;53.218;6.576;2022-08-20T05:25:44;9.00;;;2.25;;
58553;SDS011;48119;53.218;6.576;2022-08-20T05:28:18;6.18;;;2.13;;
58553;SDS011;48119;53.218;6.576;2022-08-20T05:30:46;7.10;;;1.92;;
58553;SDS011;48119;53.218;6.576;2022-08-20T05:33:13;7.82;;;1.92;;
58553;SDS011;48119;53.218;6.576;2022-08-20T05:35:45;6.32;;;2.10;;
58553;SDS011;48119;53.218;6.576;2022-08-20T05:38:14;6.00;;;1.98;;
58553;SDS011;48119;53.218;6.576;2022-08-20T05:40:48;4.60;;;1.90;;
58553;SDS011;48119;53.218;6.576;2022-08-20T05:43:18;5.68;;;1.60;;
58553;SDS011;48119;53.218;6.576;2022-08-20T05:45:47;4.70;;;2.03;;
58553;SDS011;48119;53.218;6.576;2022-08-20T05:48:17;6.63;;;1.88;;
58553;SDS011;48119;53.218;6.576;2022-08-20T05:50:50;9.32;;;2.50;;
58553;SDS011;48119;53.218;6.576;2022-08-20T05:53:18;5.35;;;2.10;;
58553;SDS011;48119;53.218;6.576;2022-08-20T05:55:46;7.22;;;2.42;;
58553;SDS011;48119;53.218;6.576;2022-08-20T05:58:16;8.60;;;2.10;;
58553;SDS011;48119;53.218;6.576;2022-08-20T06:00:45;6.95;;;2.53;;
58553;SDS011;48119;53.218;6.576;2022-08-20T06:03:13;6.82;;;2.33;;
58553;SDS011;48119;53.218;6.576;2022-08-20T06:06:00;3.83;;;1.80;;
58553;SDS011;48119;53.218;6.576;2022-08-20T06:08:27;6.05;;;2.30;;
58553;SDS011;48119;53.218;6.576;2022-08-20T06:10:54;6.68;;;2.47;;
58553;SDS011;48119;53.218;6.576;2022-08-20T06:13:27;6.50;;;2.25;;
58553;SDS011;48119;53.218;6.576;2022-08-20T06:15:53;7.63;;;2.17;;
58553;SDS011;48119;53.218;6.576;2022-08-20T06:18:23;9.82;;;2.55;;
58553;SDS011;48119;53.218;6.576;2022-08-20T06:20:49;6.05;;;2.15;;
58553;SDS011;48119;53.218;6.576;2022-08-20T06:23:17;11.80;;;2.33;;
58553;SDS011;48119;53.218;6.576;2022-08-20T06:25:43;6.47;;;1.90;;
58553;SDS011;48119;53.218;6.576;2022-08-20T06:28:11;7.03;;;2.15;;
58553;SDS011;48119;53.218;6.576;2022-08-20T06:30:38;8.05;;;2.00;;
58553;SDS011;48119;53.218;6.576;2022-08-20T06:33:04;5.80;;;1.55;;
58553;SDS011;48119;53.218;6.576;2022-08-20T06:35:31;5.25;;;1.55;;
58553;SDS011;48119;53.218;6.576;2022-08-20T06:37:58;8.07;;;2.97;;
58553;SDS011;48119;53.218;6.576;2022-08-20T06:40:26;7.75;;;2.10;;
58553;SDS011;48119;53.218;6.576;2022-08-20T06:42:53;9.85;;;2.13;;
58553;SDS011;48119;53.218;6.576;2022-08-20T06:45:21;4.50;;;1.45;;
58553;SDS011;48119;53.218;6.576;2022-08-20T06:47:51;5.57;;;1.48;;
58553;SDS011;48119;53.218;6.576;2022-08-20T06:50:38;3.40;;;1.20;;
58553;SDS011;48119;53.218;6.576;2022-08-20T06:53:11;3.17;;;1.40;;
58553;SDS011;48119;53.218;6.576;2022-08-20T06:55:40;5.60;;;1.55;;
58553;SDS011;48119;53.218;6.576;2022-08-20T06:58:10;13.00;;;2.67;;
58553;SDS011;48119;53.218;6.576;2022-08-20T07:00:37;5.82;;;1.83;;
58553;SDS011;48119;53.218;6.576;2022-08-20T07:03:05;4.50;;;1.58;;
58553;SDS011;48119;53.218;6.576;2022-08-20T07:05:37;6.72;;;2.20;;
58553;SDS011;48119;53.218;6.576;2022-08-20T07:08:07;8.73;;;1.95;;
58553;SDS011;48119;53.218;6.576;2022-08-20T07:10:37;6.00;;;1.10;;
58553;SDS011;48119;53.218;6.576;2022-08-20T07:13:05;6.28;;;1.38;;
58553;SDS011;48119;53.218;6.576;2022-08-20T07:15:34;5.72;;;1.58;;
58553;SDS011;48119;53.218;6.576;2022-08-20T07:18:05;5.53;;;1.48;;
58553;SDS011;48119;53.218;6.576;2022-08-20T07:20:32;5.20;;;1.70;;
58553;SDS011;48119;53.218;6.576;2022-08-20T07:23:00;4.22;;;1.33;;
58553;SDS011;48119;53.218;6.576;2022-08-20T07:25:27;9.88;;;2.33;;
58553;SDS011;48119;53.218;6.576;2022-08-20T07:28:14;4.70;;;1.48;;
58553;SDS011;48119;53.218;6.576;2022-08-20T07:30:51;2.75;;;1.05;;
58553;SDS011;48119;53.218;6.576;2022-08-20T07:33:36;5.35;;;1.30;;
58553;SDS011;48119;53.218;6.576;2022-08-20T07:36:07;3.33;;;1.05;;
58553;SDS011;48119;53.218;6.576;2022-08-20T07:38:36;2.97;;;1.10;;
58553;SDS011;48119;53.218;6.576;2022-08-20T07:41:08;8.02;;;1.95;;
58553;SDS011;48119;53.218;6.576;2022-08-20T07:43:37;2.75;;;0.85;;
58553;SDS011;48119;53.218;6.576;2022-08-20T07:46:04;7.43;;;1.30;;
58553;SDS011;48119;53.218;6.576;2022-08-20T07:48:38;3.53;;;1.40;;
58553;SDS011;48119;53.218;6.576;2022-08-20T07:51:13;4.75;;;2.15;;
58553;SDS011;48119;53.218;6.576;2022-08-20T07:53:42;3.37;;;1.27;;
58553;SDS011;48119;53.218;6.576;2022-08-20T07:56:11;4.28;;;1.40;;
58553;SDS011;48119;53.218;6.576;2022-08-20T07:58:44;6.65;;;1.73;;
58553;SDS011;48119;53.218;6.576;2022-08-20T08:01:25;5.25;;;1.38;;
58553;SDS011;48119;53.218;6.576;2022-08-20T08:03:54;5.80;;;2.10;;
58553;SDS011;48119;53.218;6.576;2022-08-20T08:06:23;5.43;;;1.55;;
58553;SDS011;48119;53.218;6.576;2022-08-20T08:08:58;5.93;;;1.65;;
58553;SDS011;48119;53.218;6.576;2022-08-20T08:11:33;6.88;;;1.45;;
58553;SDS011;48119;53.218;6.576;2022-08-20T08:14:03;5.40;;;1.35;;
58553;SDS011;48119;53.218;6.576;2022-08-20T08:16:39;7.80;;;2.13;;
58553;SDS011;48119;53.218;6.576;2022-08-20T08:19:09;7.80;;;1.70;;
58553;SDS011;48119;53.218;6.576;2022-08-20T08:21:42;5.78;;;2.15;;
58553;SDS011;48119;53.218;6.576;2022-08-20T08:24:09;4.00;;;1.15;;
58553;SDS011;48119;53.218;6.576;2022-08-20T08:26:39;5.60;;;1.40;;
58553;SDS011;48119;53.218;6.576;2022-08-20T08:29:05;6.55;;;1.80;;
58553;SDS011;48119;53.218;6.576;2022-08-20T08:31:33;5.68;;;1.73;;
58553;SDS011;48119;53.218;6.576;2022-08-20T08:34:00;5.28;;;1.30;;
58553;SDS011;48119;53.218;6.576;2022-08-20T08:36:29;6.32;;;2.00;;
58553;SDS011;48119;53.218;6.576;2022-08-20T08:38:55;6.03;;;1.50;;
58553;SDS011;48119;53.218;6.576;2022-08-20T08:44:16;6.30;;;1.60;;
58553;SDS011;48119;53.218;6.576;2022-08-20T08:46:48;7.28;;;1.77;;
58553;SDS011;48119;53.218;6.576;2022-08-20T08:49:24;6.22;;;1.25;;
58553;SDS011;48119;53.218;6.576;2022-08-20T08:52:04;4.57;;;1.40;;
58553;SDS011;48119;53.218;6.576;2022-08-20T08:54:37;10.00;;;2.45;;
58553;SDS011;48119;53.218;6.576;2022-08-20T08:57:09;6.38;;;1.80;;
58553;SDS011;48119;53.218;6.576;2022-08-20T08:59:37;6.57;;;1.80;;
58553;SDS011;48119;53.218;6.576;2022-08-20T09:02:04;4.85;;;1.33;;
58553;SDS011;48119;53.218;6.576;2022-08-20T09:04:35;4.70;;;1.45;;
58553;SDS011;48119;53.218;6.576;2022-08-20T09:07:04;4.40;;;1.42;;
58553;SDS011;48119;53.218;6.576;2022-08-20T09:09:35;6.82;;;2.30;;
58553;SDS011;48119;53.218;6.576;2022-08-20T09:12:12;8.98;;;1.73;;
58553;SDS011;48119;53.218;6.576;2022-08-20T09:14:42;4.68;;;1.30;;
58553;SDS011;48119;53.218;6.576;2022-08-20T09:17:07;6.15;;;1.40;;
58553;SDS011;48119;53.218;6.576;2022-08-20T09:19:35;5.50;;;1.60;;
58553;SDS011;48119;53.218;6.576;2022-08-20T09:22:11;7.82;;;1.65;;
58553;SDS011;48119;53.218;6.576;2022-08-20T09:24:40;5.75;;;1.40;;
58553;SDS011;48119;53.218;6.576;2022-08-20T09:27:08;4.43;;;1.50;;
58553;SDS011;48119;53.218;6.576;2022-08-20T09:29:35;8.02;;;1.52;;
58553;SDS011;48119;53.218;6.576;2022-08-20T09:32:12;5.50;;;1.75;;
58553;SDS011;48119;53.218;6.576;2022-08-20T09:34:44;4.85;;;1.83;;
58553;SDS011;48119;53.218;6.576;2022-08-20T09:37:13;7.70;;;1.70;;
58553;SDS011;48119;53.218;6.576;2022-08-20T09:39:40;5.90;;;1.63;;
58553;SDS011;48119;53.218;6.576;2022-08-20T09:42:10;6.68;;;1.98;;
58553;SDS011;48119;53.218;6.576;2022-08-20T09:44:41;7.75;;;1.45;;
58553;SDS011;48119;53.218;6.576;2022-08-20T09:47:07;5.03;;;1.52;;
58553;SDS011;48119;53.218;6.576;2022-08-20T09:49:34;3.92;;;1.92;;
58553;SDS011;48119;53.218;6.576;2022-08-20T09:52:02;5.13;;;1.33;;
58553;SDS011;48119;53.218;6.576;2022-08-20T09:54:29;5.03;;;1.17;;
58553;SDS011;48119;53.218;6.576;2022-08-20T09:56:58;4.22;;;1.30;;
58553;SDS011;48119;53.218;6.576;2022-08-20T09:59:33;6.53;;;1.42;;
58553;SDS011;48119;53.218;6.576;2022-08-20T10:02:00;5.32;;;1.85;;
58553;SDS011;48119;53.218;6.576;2022-08-20T10:04:27;4.32;;;1.45;;
58553;SDS011;48119;53.218;6.576;2022-08-20T10:06:54;4.47;;;1.77;;
58553;SDS011;48119;53.218;6.576;2022-08-20T10:09:21;7.38;;;2.53;;
58553;SDS011;48119;53.218;6.576;2022-08-20T10:11:46;9.90;;;2.22;;
58553;SDS011;48119;53.218;6.576;2022-08-20T10:14:12;7.28;;;1.77;;
58553;SDS011;48119;53.218;6.576;2022-08-20T10:16:39;10.43;;;1.98;;
58553;SDS011;48119;53.218;6.576;2022-08-20T10:19:04;5.78;;;1.70;;
58553;SDS011;48119;53.218;6.576;2022-08-20T10:21:31;6.22;;;1.58;;
58553;SDS011;48119;53.218;6.576;2022-08-20T10:23:57;7.68;;;2.05;;
58553;SDS011;48119;53.218;6.576;2022-08-20T10:26:23;5.25;;;1.50;;
58553;SDS011;48119;53.218;6.576;2022-08-20T10:28:49;6.35;;;1.95;;
58553;SDS011;48119;53.218;6.576;2022-08-20T10:31:15;5.68;;;1.80;;
58553;SDS011;48119;53.218;6.576;2022-08-20T10:33:41;5.50;;;1.35;;
58553;SDS011;48119;53.218;6.576;2022-08-20T10:36:12;6.40;;;1.65;;
58553;SDS011;48119;53.218;6.576;2022-08-20T10:38:40;4.88;;;1.33;;
58553;SDS011;48119;53.218;6.576;2022-08-20T10:41:12;5.10;;;1.65;;
58553;SDS011;48119;53.218;6.576;2022-08-20T10:43:44;4.65;;;1.40;;
58553;SDS011;48119;53.218;6.576;2022-08-20T10:46:10;4.63;;;1.60;;
58553;SDS011;48119;53.218;6.576;2022-08-20T10:48:36;5.90;;;1.60;;
58553;SDS011;48119;53.218;6.576;2022-08-20T10:51:03;5.72;;;2.10;;
58553;SDS011;48119;53.218;6.576;2022-08-20T10:53:29;3.85;;;1.63;;
58553;SDS011;48119;53.218;6.576;2022-08-20T10:55:58;4.60;;;1.80;;
58553;SDS011;48119;53.218;6.576;2022-08-20T10:58:27;6.28;;;1.70;;
58553;SDS011;48119;53.218;6.576;2022-08-20T11:00:55;5.78;;;1.75;;
58553;SDS011;48119;53.218;6.576;2022-08-20T11:03:22;4.50;;;1.70;;
58553;SDS011;48119;53.218;6.576;2022-08-20T11:05:59;4.43;;;1.70;;
58553;SDS011;48119;53.218;6.576;2022-08-20T11:08:30;6.60;;;2.00;;
58553;SDS011;48119;53.218;6.576;2022-08-20T11:10:56;5.30;;;1.50;;
58553;SDS011;48119;53.218;6.576;2022-08-20T11:13:26;4.78;;;1.90;;
58553;SDS011;48119;53.218;6.576;2022-08-20T11:15:59;5.30;;;1.92;;
58553;SDS011;48119;53.218;6.576;2022-08-20T11:18:29;8.13;;;2.30;;
58553;SDS011;48119;53.218;6.576;2022-08-20T11:20:57;11.40;;;2.60;;
58553;SDS011;48119;53.218;6.576;2022-08-20T11:23:29;4.82;;;2.03;;
58553;SDS011;48119;53.218;6.576;2022-08-20T11:26:01;7.60;;;2.15;;
58553;SDS011;48119;53.218;6.576;2022-08-20T11:28:40;7.00;;;2.88;;
58553;SDS011;48119;53.218;6.576;2022-08-20T11:33:40;7.70;;;1.77;;
58553;SDS011;48119;53.218;6.576;2022-08-20T11:36:10;6.90;;;2.55;;
58553;SDS011;48119;53.218;6.576;2022-08-20T11:38:48;5.40;;;1.90;;
58553;SDS011;48119;53.218;6.576;2022-08-20T11:41:14;6.35;;;2.15;;
58553;SDS011;48119;53.218;6.576;2022-08-20T11:43:46;5.97;;;1.95;;
58553;SDS011;48119;53.218;6.576;2022-08-20T11:46:13;6.68;;;1.80;;
58553;SDS011;48119;53.218;6.576;2022-08-20T11:48:52;5.70;;;1.88;;
58553;SDS011;48119;53.218;6.576;2022-08-20T11:51:25;6.55;;;1.85;;
58553;SDS011;48119;53.218;6.576;2022-08-20T11:53:50;8.43;;;1.80;;
58553;SDS011;48119;53.218;6.576;2022-08-20T11:56:17;6.25;;;1.92;;
58553;SDS011;48119;53.218;6.576;2022-08-20T11:58:48;5.55;;;2.28;;
58553;SDS011;48119;53.218;6.576;2022-08-20T12:01:14;6.10;;;1.55;;
58553;SDS011;48119;53.218;6.576;2022-08-20T12:03:43;4.45;;;1.83;;
58553;SDS011;48119;53.218;6.576;2022-08-20T12:06:09;6.68;;;2.65;;
58553;SDS011;48119;53.218;6.576;2022-08-20T12:08:36;7.90;;;2.45;;
58553;SDS011;48119;53.218;6.576;2022-08-20T12:11:02;4.97;;;2.03;;
58553;SDS011;48119;53.218;6.576;2022-08-20T12:13:30;4.88;;;1.52;;
58553;SDS011;48119;53.218;6.576;2022-08-20T12:15:57;4.47;;;1.52;;
58553;SDS011;48119;53.218;6.576;2022-08-20T12:18:24;10.90;;;2.80;;
58553;SDS011;48119;53.218;6.576;2022-08-20T12:20:50;4.85;;;1.45;;
58553;SDS011;48119;53.218;6.576;2022-08-20T12:23:17;4.78;;;1.70;;
58553;SDS011;48119;53.218;6.576;2022-08-20T12:25:49;12.23;;;2.30;;
58553;SDS011;48119;53.218;6.576;2022-08-20T12:28:15;6.38;;;1.73;;
58553;SDS011;48119;53.218;6.576;2022-08-20T12:30:41;6.93;;;1.77;;
58553;SDS011;48119;53.218;6.576;2022-08-20T12:33:07;5.90;;;1.80;;
58553;SDS011;48119;53.218;6.576;2022-08-20T12:35:33;3.45;;;1.67;;
58553;SDS011;48119;53.218;6.576;2022-08-20T12:38:03;4.97;;;1.70;;
58553;SDS011;48119;53.218;6.576;2022-08-20T12:40:30;7.25;;;1.80;;
58553;SDS011;48119;53.218;6.576;2022-08-20T12:42:58;5.55;;;2.17;;
58553;SDS011;48119;53.218;6.576;2022-08-20T12:45:24;8.85;;;2.42;;
58553;SDS011;48119;53.218;6.576;2022-08-20T12:47:50;5.93;;;1.70;;
58553;SDS011;48119;53.218;6.576;2022-08-20T12:50:17;6.47;;;2.10;;
58553;SDS011;48119;53.218;6.576;2022-08-20T12:52:45;5.60;;;1.55;;
58553;SDS011;48119;53.218;6.576;2022-08-20T12:55:13;4.80;;;1.92;;
58553;SDS011;48119;53.218;6.576;2022-08-20T12:57:42;9.70;;;2.65;;
58553;SDS011;48119;53.218;6.576;2022-08-20T13:00:15;5.47;;;2.15;;
58553;SDS011;48119;53.218;6.576;2022-08-20T13:02:48;6.57;;;2.03;;
58553;SDS011;48119;53.218;6.576;2022-08-20T13:05:15;5.60;;;1.65;;
58553;SDS011;48119;53.218;6.576;2022-08-20T13:07:43;3.20;;;1.60;;
58553;SDS011;48119;53.218;6.576;2022-08-20T13:10:12;5.57;;;1.90;;
58553;SDS011;48119;53.218;6.576;2022-08-20T13:12:42;4.10;;;1.50;;
58553;SDS011;48119;53.218;6.576;2022-08-20T13:15:08;4.65;;;1.92;;
58553;SDS011;48119;53.218;6.576;2022-08-20T13:17:35;8.73;;;2.20;;
58553;SDS011;48119;53.218;6.576;2022-08-20T13:20:01;5.32;;;2.00;;
58553;SDS011;48119;53.218;6.576;2022-08-20T13:22:36;4.93;;;1.92;;
58553;SDS011;48119;53.218;6.576;2022-08-20T13:25:05;6.78;;;1.77;;
58553;SDS011;48119;53.218;6.576;2022-08-20T13:27:41;6.60;;;2.00;;
58553;SDS011;48119;53.218;6.576;2022-08-20T13:30:09;7.47;;;2.45;;
58553;SDS011;48119;53.218;6.576;2022-08-20T13:32:38;5.00;;;1.80;;
58553;SDS011;48119;53.218;6.576;2022-08-20T13:35:06;6.45;;;2.05;;
58553;SDS011;48119;53.218;6.576;2022-08-20T13:37:39;6.40;;;2.00;;
58553;SDS011;48119;53.218;6.576;2022-08-20T13:40:08;7.25;;;2.30;;
58553;SDS011;48119;53.218;6.576;2022-08-20T13:42:34;4.40;;;1.60;;
58553;SDS011;48119;53.218;6.576;2022-08-20T13:45:01;4.95;;;2.08;;
58553;SDS011;48119;53.218;6.576;2022-08-20T13:47:30;6.30;;;2.10;;
58553;SDS011;48119;53.218;6.576;2022-08-20T13:50:00;7.07;;;2.90;;
58553;SDS011;48119;53.218;6.576;2022-08-20T13:52:43;4.95;;;2.05;;
58553;SDS011;48119;53.218;6.576;2022-08-20T13:55:10;5.45;;;1.98;;
58553;SDS011;48119;53.218;6.576;2022-08-20T13:57:39;5.93;;;2.00;;
58553;SDS011;48119;53.218;6.576;2022-08-20T14:00:07;4.10;;;1.95;;
58553;SDS011;48119;53.218;6.576;2022-08-20T14:02:38;7.65;;;2.47;;
58553;SDS011;48119;53.218;6.576;2022-08-20T14:05:05;7.28;;;1.92;;
58553;SDS011;48119;53.218;6.576;2022-08-20T14:07:32;6.25;;;1.80;;
58553;SDS011;48119;53.218;6.576;2022-08-20T14:09:59;6.38;;;2.28;;
58553;SDS011;48119;53.218;6.576;2022-08-20T14:12:27;6.47;;;2.28;;
58553;SDS011;48119;53.218;6.576;2022-08-20T14:14:56;7.28;;;2.20;;
58553;SDS011;48119;53.218;6.576;2022-08-20T14:17:26;8.95;;;2.05;;
58553;SDS011;48119;53.218;6.576;2022-08-20T14:19:56;6.25;;;2.17;;
58553;SDS011;48119;53.218;6.576;2022-08-20T14:22:25;6.93;;;2.15;;
58553;SDS011;48119;53.218;6.576;2022-08-20T14:24:51;5.70;;;2.15;;
58553;SDS011;48119;53.218;6.576;2022-08-20T14:27:18;6.18;;;2.22;;
58553;SDS011;48119;53.218;6.576;2022-08-20T14:29:46;6.70;;;2.35;;
58553;SDS011;48119;53.218;6.576;2022-08-20T14:32:13;9.50;;;2.63;;
58553;SDS011;48119;53.218;6.576;2022-08-20T14:34:41;6.45;;;2.17;;
58553;SDS011;48119;53.218;6.576;2022-08-20T14:37:09;4.15;;;1.80;;
58553;SDS011;48119;53.218;6.576;2022-08-20T14:39:38;4.97;;;2.13;;
58553;SDS011;48119;53.218;6.576;2022-08-20T14:42:05;6.22;;;2.38;;
58553;SDS011;48119;53.218;6.576;2022-08-20T14:44:33;7.07;;;2.10;;
58553;SDS011;48119;53.218;6.576;2022-08-20T14:47:08;8.98;;;2.80;;
58553;SDS011;48119;53.218;6.576;2022-08-20T14:49:42;9.52;;;2.42;;
58553;SDS011;48119;53.218;6.576;2022-08-20T14:52:08;2.92;;;1.52;;
58553;SDS011;48119;53.218;6.576;2022-08-20T14:54:36;4.43;;;1.90;;
58553;SDS011;48119;53.218;6.576;2022-08-20T14:57:09;6.78;;;3.13;;
58553;SDS011;48119;53.218;6.576;2022-08-20T14:59:38;6.47;;;2.20;;
58553;SDS011;48119;53.218;6.576;2022-08-20T15:02:05;8.18;;;3.38;;
58553;SDS011;48119;53.218;6.576;2022-08-20T15:04:33;5.82;;;3.00;;
58553;SDS011;48119;53.218;6.576;2022-08-20T15:07:00;5.32;;;2.65;;